Time;durP1;ratioP1;P1;durP2;ratioP2;P2;SDS_P1;SDS_P2;PMS_P1;PMS_P2;Temp;Humidity;BMP_temperature;BMP_pressure;BME280_temperature;BME280_humidity;BME280_pressure;Samples;Min_cycle;Max_cycle;Signal;HPM_P1;HPM_P2
2023/08/12 00:00:04;;;;;;;;;;;;;;;;;;;;;
2023/08/12 00:03:37;;;;;;;;;;;;;;;;;;;;;
2023/08/12 00:07:37;;;;;;;;;;;;;;;;;;;;;
2023/08/12 00:11:26;;;;;;;15.50;9.50;;;;;;;13.72;76.04;100909.94;126173;1295;115235;-66
2023/08/12 00:15:14;;;;;;;10.50;7.80;;;;;;;13.69;76.32;100914.77;126345;1294;114907;-65
2023/08/12 00:19:15;;;;;;;11.20;9.60;;;;;;;13.66;76.45;100913.09;126447;1293;114931;-65
2023/08/12 00:22:43;;;;;;;11.90;9.90;;;;;;;13.62;76.76;100917.10;126240;1295;114924;-66
2023/08/12 00:26:41;;;;;;;14.30;9.90;;;;;;;13.59;76.93;100919.94;126821;1307;128989;-64
2023/08/12 00:30:01;;;;;;;12.50;9.10;;;;;;;13.56;77.21;100914.38;126284;1314;115413;-65
2023/08/12 00:33:49;;;;;;;16.70;11.10;;;;;;;13.55;77.77;100910.09;126718;1292;114965;-65
2023/08/12 00:37:33;;;;;;;17.90;10.80;;;;;;;13.55;77.89;100902.38;126903;1286;115044;-65
2023/08/12 00:40:59;;;;;;;12.80;9.70;;;;;;;13.54;78.32;100896.86;127256;1285;114891;-64
2023/08/12 00:44:41;;;;;;;11.30;9.10;;;;;;;13.52;78.72;100894.78;127496;1285;129086;-65
2023/08/12 00:48:40;;;;;;;15.60;9.80;;;;;;;13.50;78.78;100887.54;127769;1277;115351;-64
2023/08/12 00:52:21;;;;;;;16.70;9.70;;;;;;;13.48;79.17;100879.59;127608;1281;114907;-65
2023/08/12 00:56:00;;;;;;;;;;;;;;;;;;;;;
2023/08/12 00:59:56;;;;;;;14.30;9.70;;;;;;;13.45;79.01;100871.70;127726;1277;114890;-65
2023/08/12 01:03:40;;;;;;;;;;;;;;;;;;;;;
2023/08/12 01:07:21;;;;;;;13.40;10.20;;;;;;;13.40;79.02;100859.02;127837;1291;115225;-65
2023/08/12 01:11:12;;;;;;;;;;;;;;;;;;;;;
2023/08/12 01:15:01;;;;;;;;;;;;;;;;;;;;;
2023/08/12 01:18:23;;;;;;;12.10;10.10;;;;;;;13.34;79.27;100867.89;128832;1253;114954;31
2023/08/12 01:21:29;;;;;;;11.60;9.60;;;;;;;13.32;79.40;100862.78;129869;1267;127657;-70
2023/08/12 01:24:44;;;;;;;14.10;10.40;;;;;;;13.31;79.51;100859.10;129791;1264;115676;-68
2023/08/12 01:27:46;;;;;;;15.60;10.40;;;;;;;13.30;79.71;100858.59;129537;1264;114826;-69
2023/08/12 01:31:16;;;;;;;12.40;10.20;;;;;;;13.30;79.69;100860.95;129844;1264;114738;-69
2023/08/12 01:34:28;;;;;;;15.60;11.20;;;;;;;13.29;79.77;100860.24;129554;1267;114785;-71
2023/08/12 01:37:31;;;;;;;14.40;11.30;;;;;;;13.28;79.80;100860.68;129695;1282;128063;-71
2023/08/12 01:40:35;;;;;;;15.00;10.70;;;;;;;13.26;79.67;100861.66;129908;1278;114808;-71
2023/08/12 01:43:38;;;;;;;14.60;11.50;;;;;;;13.25;79.89;100856.89;129714;1267;115360;-73
2023/08/12 01:46:43;;;;;;;17.50;11.40;;;;;;;13.23;79.85;100861.11;129796;1282;115257;-71
2023/08/12 01:49:45;;;;;;;14.90;10.90;;;;;;;13.21;79.92;100864.27;129923;1262;115073;-70
2023/08/12 01:52:47;;;;;;;16.10;10.60;;;;;;;13.19;79.84;100861.83;129762;1266;114737;-72
2023/08/12 01:55:50;;;;;;;13.40;11.20;;;;;;;13.18;79.97;100862.08;129841;1260;114795;-72
2023/08/12 01:58:52;;;;;;;10.60;9.50;;;;;;;13.16;79.89;100858.76;129864;1263;115192;-68
2023/08/12 02:01:54;;;;;;;17.00;10.20;;;;;;;13.15;79.97;100855.60;129754;1264;114783;-69
2023/08/12 02:04:56;;;;;;;16.70;11.60;;;;;;;13.12;79.95;100852.52;129960;1261;114827;-69
2023/08/12 02:07:58;;;;;;;19.80;13.20;;;;;;;13.11;80.15;100849.88;129579;1267;114751;-68
2023/08/12 02:11:00;;;;;;;16.50;13.70;;;;;;;13.11;80.49;100845.60;129897;1260;115173;-68
2023/08/12 02:14:02;;;;;;;19.00;14.50;;;;;;;13.13;80.74;100838.13;129996;1282;115132;-68
2023/08/12 02:17:07;;;;;;;19.00;13.90;;;;;;;13.16;81.05;100832.24;129892;1276;128134;-68
2023/08/12 02:20:09;;;;;;;;;;;;;;;13.20;81.02;100826.09;129640;1265;114751;-68
2023/08/12 02:23:11;;;;;;;17.10;12.30;;;;;;;13.23;81.28;100821.84;129739;1260;115260;-68
2023/08/12 02:26:12;;;;;;;17.20;12.30;;;;;;;13.26;81.15;100825.10;129756;1264;114766;-68
2023/08/12 02:29:14;;;;;;;18.90;13.00;;;;;;;13.28;81.12;100828.02;129706;1264;115358;-68
2023/08/12 02:32:16;;;;;;;17.20;12.40;;;;;;;13.32;81.10;100833.55;129706;1264;115256;-69
2023/08/12 02:35:20;;;;;;;14.70;11.90;;;;;;;13.35;81.06;100839.69;129796;1259;114751;-68
2023/08/12 02:38:22;;;;;;;18.00;11.40;;;;;;;13.36;81.04;100838.18;129508;1280;128653;-68
2023/08/12 02:41:24;;;;;;;13.70;11.00;;;;;;;13.39;81.03;100835.02;129738;1262;114999;-68
2023/08/12 02:44:26;;;;;;;14.80;11.70;;;;;;;13.41;81.04;100833.68;129871;1262;114837;-66
2023/08/12 02:47:28;;;;;;;16.90;11.80;;;;;;;13.42;80.99;100830.05;129905;1279;114731;-67
2023/08/12 02:50:30;;;;;;;13.70;10.90;;;;;;;13.41;80.80;100831.31;129883;1260;115215;-67
2023/08/12 02:53:32;;;;;;;14.50;10.90;;;;;;;13.41;80.81;100834.94;129822;1260;115435;-68
2023/08/12 02:56:34;;;;;;;17.20;11.40;;;;;;;13.38;80.74;100836.46;129857;1266;114709;-68
2023/08/12 02:59:36;;;;;;;16.60;10.40;;;;;;;13.37;80.78;100834.91;129778;1264;114757;-70
2023/08/12 03:02:43;;;;;;;17.90;11.00;;;;;;;13.35;80.76;100835.36;129784;1263;114996;-72
2023/08/12 03:05:49;;;;;;;17.10;10.90;;;;;;;13.32;80.73;100831.39;129682;1276;115504;-69
2023/08/12 03:08:51;;;;;;;18.40;13.70;;;;;;;13.30;80.80;100830.08;129836;1265;114852;-68
2023/08/12 03:11:53;;;;;;;19.00;12.20;;;;;;;13.28;80.71;100832.35;129846;1276;115166;-68
2023/08/12 03:14:55;;;;;;;16.00;10.60;;;;;;;13.27;80.89;100836.34;129829;1259;114785;-68
2023/08/12 03:17:57;;;;;;;14.80;11.00;;;;;;;13.25;80.85;100840.02;129635;1282;114871;-68
2023/08/12 03:20:59;;;;;;;14.60;11.30;;;;;;;13.24;80.97;100836.31;129724;1282;114866;-68
2023/08/12 03:24:01;;;;;;;16.00;12.10;;;;;;;13.24;81.11;100837.05;129770;1282;114747;-68
2023/08/12 03:27:03;;;;;;;15.80;11.40;;;;;;;13.23;81.09;100832.25;129493;1282;115209;-68
2023/08/12 03:30:06;;;;;;;15.90;12.20;;;;;;;13.24;81.38;100835.27;130026;1278;114768;-69
2023/08/12 03:33:08;;;;;;;21.60;12.60;;;;;;;13.24;81.26;100828.59;129758;1282;114757;-69
2023/08/12 03:36:10;;;;;;;17.20;11.00;;;;;;;13.26;81.30;100827.08;129738;1263;114760;-68
2023/08/12 03:39:12;;;;;;;14.60;11.10;;;;;;;13.27;81.51;100827.36;129474;1269;114876;-68
2023/08/12 03:42:16;;;;;;;16.30;12.10;;;;;;;13.27;81.48;100825.58;129951;1263;114903;-69
2023/08/12 03:45:18;;;;;;;18.00;12.30;;;;;;;13.29;81.40;100825.99;129732;1264;114723;-68
2023/08/12 03:48:20;;;;;;;16.70;11.20;;;;;;;13.30;81.46;100825.98;129699;1274;114715;-71
2023/08/12 03:51:22;;;;;;;14.70;11.00;;;;;;;13.30;81.49;100827.02;129811;1266;114741;-70
2023/08/12 03:54:24;;;;;;;18.30;12.40;;;;;;;13.31;81.62;100833.23;129453;1261;114846;-68
2023/08/12 03:57:26;;;;;;;15.10;11.00;;;;;;;13.33;81.63;100835.46;129620;1284;115213;-69
2023/08/12 04:00:28;;;;;;;18.40;12.40;;;;;;;13.35;81.81;100836.61;129741;1260;114747;-69
2023/08/12 04:03:30;;;;;;;18.00;12.90;;;;;;;13.39;81.72;100834.10;129404;1268;129026;-69
2023/08/12 04:06:32;;;;;;;15.70;11.70;;;;;;;13.45;81.88;100828.09;129606;1267;114794;-69
2023/08/12 04:09:34;;;;;;;15.80;12.50;;;;;;;13.53;81.90;100830.35;129823;1266;114735;-68
2023/08/12 04:12:36;;;;;;;19.50;11.80;;;;;;;13.61;82.03;100825.98;129390;1266;114888;-68
2023/08/12 04:15:39;;;;;;;12.70;11.00;;;;;;;13.71;82.11;100827.95;129710;1264;114869;-70
2023/08/12 04:18:41;;;;;;;14.40;10.90;;;;;;;13.81;82.16;100828.10;129623;1264;114759;-68
2023/08/12 04:21:46;;;;;;;16.50;11.70;;;;;;;13.93;82.03;100826.05;129710;1260;115111;-69
2023/08/12 04:24:48;;;;;;;13.60;10.70;;;;;;;14.05;82.01;100824.86;129681;1260;129030;-68
2023/08/12 04:27:50;;;;;;;12.80;10.50;;;;;;;14.16;81.94;100831.59;129696;1263;114835;-69
2023/08/12 04:30:52;;;;;;;13.60;10.40;;;;;;;14.30;81.88;100834.76;129645;1265;114812;-68
2023/08/12 04:33:54;;;;;;;10.80;9.60;;;;;;;14.44;81.56;100830.19;129691;1265;114748;-68
2023/08/12 04:36:56;;;;;;;14.80;10.50;;;;;;;14.57;81.48;100830.16;129699;1264;115205;-69
2023/08/12 04:39:59;;;;;;;12.80;10.30;;;;;;;14.70;81.36;100825.65;129729;1260;115516;-69
2023/08/12 04:43:01;;;;;;;11.70;9.30;;;;;;;14.82;80.91;100824.77;129398;1267;114911;-69
2023/08/12 04:46:03;;;;;;;10.80;8.50;;;;;;;14.92;80.78;100826.73;129635;1265;114898;-69
2023/08/12 04:49:05;;;;;;;21.60;9.60;;;;;;;15.03;80.57;100821.41;129759;1266;117062;-67
2023/08/12 04:52:07;;;;;;;12.30;9.40;;;;;;;15.13;80.28;100819.75;129482;1261;115233;-68
2023/08/12 04:55:13;;;;;;;11.30;9.20;;;;;;;15.20;80.23;100823.41;129680;1260;115383;-68
2023/08/12 04:58:15;;;;;;;;;;;;;;;15.31;80.10;100822.09;129710;1260;114743;-69
2023/08/12 05:01:17;;;;;;;13.30;8.60;;;;;;;15.43;80.22;100822.60;129738;1264;115355;-70
2023/08/12 05:04:19;;;;;;;11.40;9.30;;;;;;;15.66;80.21;100823.89;129740;1260;115338;-68
2023/08/12 05:07:20;;;;;;;10.30;9.00;;;;;;;15.94;79.96;100821.79;129670;1260;128984;-69
2023/08/12 05:10:23;;;;;;;11.70;8.40;;;;;;;16.23;79.72;100822.48;129678;1264;114740;-70
2023/08/12 05:13:24;;;;;;;16.20;10.60;;;;;;;16.51;79.30;100822.05;129762;1260;115570;-69
2023/08/12 05:16:27;;;;;;;14.60;10.40;;;;;;;16.83;79.23;100818.36;129413;1269;114760;-69
2023/08/12 05:19:29;;;;;;;9.60;8.60;;;;;;;17.18;78.95;100812.23;129687;1260;114786;-68
2023/08/12 05:22:31;;;;;;;14.20;8.80;;;;;;;17.50;78.40;100807.65;129746;1266;115075;-70
2023/08/12 05:25:33;;;;;;;13.50;8.40;;;;;;;17.77;77.61;100807.75;129588;1277;114956;-70
2023/08/12 05:28:35;;;;;;;13.00;9.20;;;;;;;18.03;77.20;100806.61;129551;1266;114712;-70
2023/08/12 05:31:37;;;;;;;13.10;7.70;;;;;;;18.29;76.40;100802.55;129642;1260;114896;-70
2023/08/12 05:34:39;;;;;;;14.80;8.40;;;;;;;18.53;76.01;100800.79;129674;1266;115411;-70
2023/08/12 05:37:41;;;;;;;10.30;8.50;;;;;;;18.77;75.59;100796.43;129580;1265;114753;-69
2023/08/12 05:40:43;;;;;;;10.50;7.30;;;;;;;19.01;75.15;100793.04;129746;1273;114665;-69
2023/08/12 05:43:45;;;;;;;18.50;8.00;;;;;;;19.17;74.18;100784.53;129686;1263;114833;-70
2023/08/12 05:46:47;;;;;;;9.60;7.80;;;;;;;19.33;73.54;100781.67;129630;1263;115251;-69
2023/08/12 05:49:49;;;;;;;12.00;7.70;;;;;;;19.47;73.05;100784.88;129745;1264;114826;-68
2023/08/12 05:52:50;;;;;;;10.00;6.30;;;;;;;19.66;72.89;100782.88;129707;1260;129000;-71
2023/08/12 05:55:52;;;;;;;10.40;6.20;;;;;;;19.89;72.58;100777.80;129695;1259;114905;-69
2023/08/12 05:58:54;;;;;;;8.40;5.90;;;;;;;20.13;72.26;100775.28;129839;1263;114816;-69
2023/08/12 06:01:56;;;;;;;7.40;5.60;;;;;;;20.39;70.98;100770.20;129744;1263;114728;-70
2023/08/12 06:04:59;;;;;;;8.10;5.10;;;;;;;20.66;69.84;100770.02;129705;1260;115262;-70
2023/08/12 06:08:01;;;;;;;9.50;5.50;;;;;;;20.93;69.37;100773.18;129781;1260;114806;-68
2023/08/12 06:11:03;;;;;;;8.30;5.20;;;;;;;21.10;68.87;100767.39;129735;1263;114740;-70
2023/08/12 06:14:06;;;;;;;11.30;5.30;;;;;;;21.30;68.25;100766.02;129794;1263;114821;-71
2023/08/12 06:17:08;;;;;;;7.80;5.20;;;;;;;21.54;66.98;100767.23;129698;1266;114733;-71
2023/08/12 06:20:11;;;;;;;10.10;5.50;;;;;;;21.86;66.79;100763.66;129735;1279;114708;-71
2023/08/12 06:23:13;;;;;;;8.30;4.70;;;;;;;22.26;66.59;100757.52;129303;1266;114833;-72
2023/08/12 06:26:15;;;;;;;7.70;4.90;;;;;;;22.51;64.83;100758.13;129348;1267;114937;-71
2023/08/12 06:29:17;;;;;;;7.30;4.50;;;;;;;22.73;64.64;100757.40;129389;1264;114930;-70
2023/08/12 06:32:19;;;;;;;10.40;4.70;;;;;;;23.07;64.49;100761.45;129382;1267;114917;-71
2023/08/12 06:35:20;;;;;;;7.50;4.40;;;;;;;23.48;63.23;100760.75;129309;1267;115625;-72
2023/08/12 06:38:22;;;;;;;10.20;5.20;;;;;;;23.93;63.02;100754.33;129398;1267;114992;-72
2023/08/12 06:41:24;;;;;;;8.70;4.50;;;;;;;24.37;61.29;100749.45;129166;1286;116511;-72
2023/08/12 06:44:26;;;;;;;5.90;4.30;;;;;;;24.77;60.00;100752.17;129357;1267;114864;-72
2023/08/12 06:47:29;;;;;;;12.20;6.90;;;;;;;25.11;59.62;100750.88;129545;1283;114944;-72
2023/08/12 06:50:33;;;;;;;7.80;5.00;;;;;;;25.53;59.40;100744.73;129693;1264;114742;-72
2023/08/12 06:53:35;;;;;;;7.40;4.60;;;;;;;25.92;58.85;100742.20;129742;1260;114741;-70
2023/08/12 06:56:37;;;;;;;10.00;4.80;;;;;;;26.29;57.57;100743.90;129709;1274;114811;-70
2023/08/12 06:59:39;;;;;;;8.00;5.00;;;;;;;26.63;56.62;100738.18;129793;1282;114815;-70
2023/08/12 07:02:42;;;;;;;3.60;3.30;;;;;;;26.88;55.51;100735.59;129458;1268;115186;-71
2023/08/12 07:05:44;;;;;;;5.30;4.10;;;;;;;27.13;54.62;100735.52;129696;1264;114775;-71
2023/08/12 07:08:46;;;;;;;7.00;3.70;;;;;;;27.38;54.17;100732.86;129775;1264;114804;-70
2023/08/12 07:11:48;;;;;;;5.80;4.20;;;;;;;27.65;53.94;100732.80;129787;1275;114757;-70
2023/08/12 07:14:50;;;;;;;5.00;3.90;;;;;;;27.99;53.69;100732.20;129489;1267;114793;-71
2023/08/12 07:17:52;;;;;;;4.70;3.50;;;;;;;28.33;53.12;100733.73;129765;1282;115094;-72
2023/08/12 07:20:54;;;;;;;6.30;3.60;;;;;;;28.72;52.70;100730.05;129674;1282;114850;-71
2023/08/12 07:23:56;;;;;;;5.50;3.70;;;;;;;29.09;51.51;100732.38;129513;1265;114758;-73
2023/08/12 07:26:58;;;;;;;7.40;3.80;;;;;;;29.52;50.93;100733.42;129701;1265;115376;-71
2023/08/12 07:30:00;;;;;;;4.00;3.60;;;;;;;29.93;49.83;100730.88;129769;1281;114751;-71
2023/08/12 07:33:02;;;;;;;5.60;3.70;;;;;;;30.19;48.71;100728.12;129665;1282;114741;-71
2023/08/12 07:36:04;;;;;;;6.70;3.50;;;;;;;30.26;47.60;100728.30;129789;1265;114847;-71
2023/08/12 07:39:07;;;;;;;3.90;3.40;;;;;;;30.23;46.78;100728.33;129784;1263;115653;-71
2023/08/12 07:42:08;;;;;;;4.90;3.00;;;;;;;30.23;45.98;100721.52;129685;1263;120054;-68
2023/08/12 07:45:11;;;;;;;9.00;3.10;;;;;;;30.35;46.04;100718.17;129712;1264;114833;-69
2023/08/12 07:48:14;;;;;;;4.20;2.90;;;;;;;30.55;45.66;100714.99;129838;1282;114794;-70
2023/08/12 07:51:15;;;;;;;4.90;3.00;;;;;;;30.83;44.74;100711.83;129542;1267;114830;-69
2023/08/12 07:54:17;;;;;;;4.70;3.50;;;;;;;31.09;44.49;100705.70;129775;1260;115390;-70
2023/08/12 07:57:23;;;;;;;3.60;3.30;;;;;;;31.32;44.39;100702.50;129794;1263;114781;-71
2023/08/12 08:00:25;;;;;;;6.70;3.00;;;;;;;31.61;44.02;100704.02;129710;1260;114725;-71
2023/08/12 08:03:27;;;;;;;4.90;3.00;;;;;;;31.91;43.63;100698.83;129716;1265;114728;-71
2023/08/12 08:06:29;;;;;;;7.00;3.60;;;;;;;32.24;43.37;100695.70;129930;1282;114823;-71
2023/08/12 08:09:31;;;;;;;5.40;2.90;;;;;;;32.51;42.53;100697.93;129800;1264;114798;-71
2023/08/12 08:12:33;;;;;;;6.20;3.20;;;;;;;32.74;41.96;100691.75;127464;1265;2991870;-71
2023/08/12 08:15:35;;;;;;;8.20;3.40;;;;;;;32.95;41.47;100688.90;129727;1263;114885;-71
2023/08/12 08:18:37;;;;;;;6.90;2.90;;;;;;;33.14;40.68;100686.31;129739;1282;115274;-72
2023/08/12 08:21:39;;;;;;;3.50;2.40;;;;;;;33.21;39.52;100689.88;129790;1282;114777;-72
2023/08/12 08:24:41;;;;;;;4.20;2.90;;;;;;;33.27;39.29;100694.57;129470;1260;114829;-70
2023/08/12 08:27:43;;;;;;;7.10;2.70;;;;;;;33.26;38.71;100693.66;129741;1259;114730;-71
2023/08/12 08:30:45;;;;;;;6.30;3.20;;;;;;;33.25;39.15;100691.37;129806;1282;114759;-71
2023/08/12 08:33:47;;;;;;;5.60;3.10;;;;;;;33.33;38.97;100690.67;129597;1268;114778;-70
2023/08/12 08:36:50;;;;;;;3.30;3.00;;;;;;;33.44;38.77;100685.45;129804;1263;115267;-70
2023/08/12 08:39:52;;;;;;;9.00;2.90;;;;;;;33.57;38.96;100683.39;129748;1263;114859;-71
2023/08/12 08:42:54;;;;;;;4.80;2.80;;;;;;;33.69;38.87;100682.27;129872;1279;114718;-70
2023/08/12 08:45:56;;;;;;;3.40;2.90;;;;;;;33.77;38.52;100678.95;129530;1268;114821;-71
2023/08/12 08:49:00;;;;;;;2.60;2.40;;;;;;;33.81;38.25;100678.55;129685;1276;114811;-70
2023/08/12 08:52:02;;;;;;;;;;;;;;;33.81;37.96;100684.40;129841;1259;114799;-70
2023/08/12 08:55:04;;;;;;;3.50;3.20;;;;;;;33.71;37.66;100676.37;129781;1265;114812;-71
2023/08/12 08:58:06;;;;;;;3.10;2.70;;;;;;;33.59;37.32;100672.14;129807;1265;115180;-69
2023/08/12 09:01:09;;;;;;;3.70;2.70;;;;;;;33.21;36.50;100671.43;129553;1270;114882;-70
2023/08/12 09:04:12;;;;;;;3.40;2.30;;;;;;;32.86;37.02;100671.27;129749;1275;114822;-69
2023/08/12 09:07:14;;;;;;;7.00;3.00;;;;;;;32.57;37.14;100672.63;129790;1265;114869;-69
2023/08/12 09:10:17;;;;;;;3.70;2.60;;;;;;;32.38;37.71;100677.65;129933;1280;114760;-68
2023/08/12 09:13:19;;;;;;;8.30;3.10;;;;;;;32.18;37.54;100677.38;129481;1264;114889;-69
2023/08/12 09:16:21;;;;;;;3.50;2.40;;;;;;;32.06;37.97;100675.91;129815;1260;114750;-71
2023/08/12 09:19:23;;;;;;;6.40;3.00;;;;;;;32.02;38.17;100671.63;129811;1276;114750;-72
2023/08/12 09:22:25;;;;;;;4.30;2.70;;;;;;;31.92;37.84;100667.04;129541;1267;114822;-71
2023/08/12 09:25:29;;;;;;;2.50;2.20;;;;;;;31.79;37.66;100673.77;129585;1278;114829;-69
2023/08/12 09:28:31;;;;;;;2.90;2.10;;;;;;;31.69;37.65;100675.13;129692;1282;114857;-70
2023/08/12 09:31:33;;;;;;;4.50;2.70;;;;;;;31.65;38.38;100671.61;129737;1265;114754;-69
2023/08/12 09:34:36;;;;;;;4.70;2.50;;;;;;;31.66;38.17;100667.61;129771;1271;114842;-68
2023/08/12 09:37:38;;;;;;;3.70;2.30;;;;;;;31.60;38.40;100664.09;129814;1260;114834;-70
2023/08/12 09:40:40;;;;;;;3.90;2.40;;;;;;;31.53;38.84;100658.52;129842;1263;114797;-69
2023/08/12 09:43:42;;;;;;;3.20;2.90;;;;;;;31.47;38.44;100656.20;129621;1283;114814;-70
2023/08/12 09:46:44;;;;;;;8.40;2.70;;;;;;;31.34;38.41;100655.03;129632;1284;114674;-69
2023/08/12 09:49:46;;;;;;;3.80;2.40;;;;;;;31.18;38.52;100652.64;129738;1265;114744;-69
2023/08/12 09:52:49;;;;;;;5.50;2.70;;;;;;;31.01;38.81;100652.33;129779;1262;114930;-69
2023/08/12 09:55:52;;;;;;;4.90;2.70;;;;;;;30.77;38.46;100655.58;129563;1266;114822;-70
2023/08/12 09:58:55;;;;;;;8.30;3.30;;;;;;;30.43;37.97;100653.39;129786;1265;115315;-69
2023/08/12 10:01:57;;;;;;;3.50;2.20;;;;;;;30.04;38.12;100647.57;129569;1283;114802;-69
2023/08/12 10:05:00;;;;;;;4.10;3.10;;;;;;;29.79;39.31;100650.08;129834;1265;114707;-71
2023/08/12 10:08:03;;;;;;;4.80;2.20;;;;;;;29.60;39.07;100648.88;129603;1268;114820;-67
2023/08/12 10:11:06;;;;;;;7.60;3.20;;;;;;;29.41;39.47;100642.25;129331;1271;119227;-68
2023/08/12 10:14:10;;;;;;;5.50;2.60;;;;;;;29.28;39.80;100637.98;129725;1265;114805;-69
2023/08/12 10:17:12;;;;;;;7.00;2.60;;;;;;;29.14;40.02;100636.39;129877;1263;114802;-70
2023/08/12 10:20:20;;;;;;;3.70;2.90;;;;;;;29.07;40.57;100634.17;129891;1265;114877;-69
2023/08/12 10:23:22;;;;;;;2.70;2.50;;;;;;;29.03;40.94;100632.37;129812;1265;115106;-69
2023/08/12 10:26:25;;;;;;;4.40;2.80;;;;;;;28.94;40.80;100627.75;129722;1265;115132;-70
2023/08/12 10:29:27;;;;;;;4.00;2.80;;;;;;;28.83;40.67;100624.63;129522;1284;114825;-71
2023/08/12 10:32:30;;;;;;;4.30;2.30;;;;;;;28.72;40.87;100623.20;129640;1265;114754;-70
2023/08/12 10:35:43;;;;;;;5.80;3.00;;;;;;;28.66;41.22;100621.57;129780;1274;115230;-69
2023/08/12 10:38:46;;;;;;;3.70;2.60;;;;;;;28.63;40.95;100617.07;129607;1261;115055;-68
2023/08/12 10:41:54;;;;;;;2.50;2.10;;;;;;;28.57;41.15;100612.73;129716;1263;115126;-69
2023/08/12 10:44:57;;;;;;;4.30;3.10;;;;;;;28.51;41.33;100607.41;129489;1265;119999;-69
2023/08/12 10:48:00;;;;;;;4.30;2.70;;;;;;;28.48;41.61;100599.30;129761;1265;114889;-71
2023/08/12 10:51:04;;;;;;;6.80;3.30;;;;;;;28.48;41.76;100595.38;129757;1265;115338;-71
2023/08/12 10:54:22;;;;;;;2.60;2.40;;;;;;;28.50;42.26;100592.09;129829;1265;114836;-70
2023/08/12 10:57:39;;;;;;;6.10;2.50;;;;;;;28.51;42.50;100591.42;129729;1276;114787;-70
2023/08/12 11:00:41;;;;;;;3.90;1.60;;;;;;;28.53;42.81;100586.02;129671;1263;120027;-69
2023/08/12 11:03:44;;;;;;;2.40;1.70;;;;;;;28.55;42.94;100583.53;129757;1265;114760;-70
2023/08/12 11:06:46;;;;;;;6.80;2.10;;;;;;;28.57;42.76;100587.58;129699;1275;114734;-70
2023/08/12 11:09:52;;;;;;;2.20;1.80;;;;;;;28.48;41.84;100588.64;129509;1265;114717;-70
2023/08/12 11:12:56;;;;;;;4.80;2.60;;;;;;;28.44;42.66;100586.02;129720;1265;114818;-70
2023/08/12 11:16:09;;;;;;;3.10;1.90;;;;;;;28.45;42.70;100582.39;129565;1268;114813;-69
2023/08/12 11:19:11;;;;;;;2.20;2.00;;;;;;;28.42;42.25;100578.55;129580;1260;119140;-69
2023/08/12 11:22:14;;;;;;;2.70;2.10;;;;;;;28.35;41.92;100574.94;129801;1276;115249;-69
2023/08/12 11:25:15;;;;;;;3.40;2.10;;;;;;;28.32;42.71;100573.99;129877;1276;114747;-69
2023/08/12 11:28:19;;;;;;;2.70;2.10;;;;;;;28.31;42.41;100572.09;129836;1264;114819;-69
2023/08/12 11:31:22;;;;;;;5.70;2.80;;;;;;;28.27;42.67;100570.91;129800;1264;114812;-69
2023/08/12 11:34:24;;;;;;;4.60;2.40;;;;;;;28.29;42.71;100569.31;129912;1266;114741;-69
2023/08/12 11:37:26;;;;;;;5.20;2.00;;;;;;;28.25;42.29;100561.33;129784;1259;114815;-69
2023/08/12 11:40:29;;;;;;;4.00;2.00;;;;;;;28.23;42.38;100559.58;129801;1260;115119;-70
2023/08/12 11:43:34;;;;;;;3.50;2.20;;;;;;;28.19;42.14;100558.65;129630;1268;115166;-69
2023/08/12 11:46:36;;;;;;;3.50;2.40;;;;;;;28.15;42.02;100555.62;129758;1275;115224;-69
2023/08/12 11:49:38;;;;;;;4.10;2.00;;;;;;;28.13;41.94;100555.00;129850;1264;115221;-70
2023/08/12 11:52:40;;;;;;;2.60;2.00;;;;;;;28.11;41.79;100554.39;129859;1283;115384;-68
2023/08/12 11:55:42;;;;;;;3.60;2.00;;;;;;;28.08;42.28;100546.16;129640;1281;114812;-70
2023/08/12 11:58:49;;;;;;;6.80;2.90;;;;;;;28.13;42.58;100540.70;129560;1265;114742;-71
2023/08/12 12:01:51;;;;;;;5.20;2.80;;;;;;;28.15;42.58;100533.48;129799;1264;114773;-70
2023/08/12 12:04:53;;;;;;;4.50;1.90;;;;;;;28.14;42.70;100530.59;129737;1282;114773;-70
2023/08/12 12:07:55;;;;;;;3.80;2.10;;;;;;;28.15;42.57;100526.48;129868;1280;115468;-72
2023/08/12 12:11:04;;;;;;;4.00;2.30;;;;;;;28.12;42.01;100522.94;129679;1266;114761;-69
2023/08/12 12:14:07;;;;;;;2.10;1.90;;;;;;;28.05;42.46;100524.77;129821;1265;114732;-68
2023/08/12 12:17:13;;;;;;;4.90;2.90;;;;;;;27.98;42.50;100524.50;129437;1268;119260;-68
2023/08/12 12:20:15;;;;;;;3.80;1.90;;;;;;;27.91;42.94;100520.13;129689;1279;115268;-70
2023/08/12 12:23:17;;;;;;;2.20;1.70;;;;;;;27.87;43.15;100517.10;129711;1266;114709;-69
2023/08/12 12:26:19;;;;;;;2.00;1.80;;;;;;;27.83;43.15;100514.35;129799;1260;114744;-67
2023/08/12 12:29:20;;;;;;;3.20;1.90;;;;;;;27.78;43.11;100514.70;129577;1266;114783;-72
2023/08/12 12:32:23;;;;;;;6.00;2.00;;;;;;;27.74;43.69;100512.39;129735;1275;115278;-73
2023/08/12 12:35:24;;;;;;;2.80;1.90;;;;;;;27.72;43.62;100509.58;129791;1266;114816;-71
2023/08/12 12:38:27;;;;;;;1.90;1.70;;;;;;;27.66;43.50;100508.77;129771;1278;118973;-72
2023/08/12 12:41:29;;;;;;;3.20;2.10;;;;;;;27.63;44.04;100507.21;129726;1265;114725;-67
2023/08/12 12:44:31;;;;;;;3.00;2.00;;;;;;;27.61;44.12;100503.85;129799;1276;114823;-67
2023/08/12 12:47:33;;;;;;;5.90;2.30;;;;;;;27.59;43.56;100502.04;129831;1265;114739;-69
2023/08/12 12:50:37;;;;;;;2.20;1.80;;;;;;;27.59;43.55;100504.45;129550;1265;114837;-67
2023/08/12 12:53:40;;;;;;;3.00;1.90;;;;;;;27.57;43.49;100499.98;129795;1265;114794;-67
2023/08/12 12:56:42;;;;;;;2.00;1.80;;;;;;;27.54;43.69;100494.20;129791;1282;114738;-69
2023/08/12 12:59:44;;;;;;;2.10;1.70;;;;;;;27.53;43.70;100489.40;129677;1265;114814;-69
2023/08/12 13:02:46;;;;;;;6.10;2.30;;;;;;;27.52;43.77;100487.17;129769;1260;115139;-68
2023/08/12 13:05:48;;;;;;;3.10;2.70;;;;;;;27.52;44.15;100488.79;129857;1265;114750;-68
2023/08/12 13:08:50;;;;;;;3.90;2.00;;;;;;;27.52;43.79;100487.68;129811;1283;115005;-70
2023/08/12 13:11:52;;;;;;;5.50;1.80;;;;;;;27.53;43.96;100489.30;129786;1263;114747;-69
2023/08/12 13:14:53;;;;;;;4.00;2.00;;;;;;;27.54;44.42;100489.70;129523;1265;114833;-72
2023/08/12 13:17:55;;;;;;;3.30;2.00;;;;;;;27.53;44.51;100480.39;129839;1283;114738;-69
2023/08/12 13:20:57;;;;;;;2.60;1.80;;;;;;;27.52;44.35;100473.36;130034;1261;114746;-68
2023/08/12 13:24:01;;;;;;;3.30;1.70;;;;;;;27.51;44.26;100469.91;129643;1269;114983;-66
2023/08/12 13:27:03;;;;;;;2.60;2.00;;;;;;;27.51;44.61;100469.15;129975;1265;115190;-68
2023/08/12 13:30:06;;;;;;;4.20;1.60;;;;;;;27.50;44.67;100464.44;129784;1260;114751;-68
2023/08/12 13:33:08;;;;;;;4.80;2.30;;;;;;;27.50;44.60;100462.25;129980;1265;114735;-67
2023/08/12 13:36:10;;;;;;;4.70;1.70;;;;;;;27.53;44.92;100458.45;129915;1265;115631;-67
2023/08/12 13:39:12;;;;;;;2.00;1.70;;;;;;;27.54;44.91;100454.98;129667;1266;120393;-67
2023/08/12 13:42:14;;;;;;;2.40;2.00;;;;;;;27.53;44.98;100447.95;129907;1265;114754;-68
2023/08/12 13:45:16;;;;;;;2.70;1.70;;;;;;;27.54;44.49;100447.80;130009;1274;114740;-67
2023/08/12 13:48:18;;;;;;;4.80;2.60;;;;;;;27.59;44.03;100445.17;129627;1282;114808;-67
2023/08/12 13:51:20;;;;;;;2.50;2.30;;;;;;;27.61;44.14;100440.02;129886;1265;114772;-67
2023/08/12 13:54:22;;;;;;;3.00;2.40;;;;;;;27.61;44.31;100435.05;129913;1265;114751;-66
2023/08/12 13:57:24;;;;;;;1.60;1.50;;;;;;;27.59;44.42;100427.44;129850;1282;114732;-68
2023/08/12 14:00:26;;;;;;;2.70;1.90;;;;;;;27.62;44.54;100426.23;129886;1276;115161;-67
2023/08/12 14:03:28;;;;;;;2.50;1.70;;;;;;;27.61;44.88;100421.13;130028;1263;114767;-67
2023/08/12 14:06:30;;;;;;;2.00;1.80;;;;;;;27.59;44.59;100422.61;129653;1283;116513;-68
2023/08/12 14:09:34;;;;;;;3.00;1.70;;;;;;;27.61;44.48;100417.61;129900;1266;114748;-67